createdAt,value
2023-03-02T00:03:33.533Z,13.37
2023-03-02T00:08:36.547Z,13.27
2023-03-02T00:13:38.862Z,14.07
2023-03-02T00:18:40.550Z,13.03
2023-03-02T00:23:42.224Z,13.60
2023-03-02T00:28:43.832Z,13.60
2023-03-02T00:33:45.494Z,13.17
2023-03-02T00:38:47.874Z,14.00
2023-03-02T00:43:50.824Z,14.53
2023-03-02T00:48:52.712Z,13.63
2023-03-02T00:53:54.357Z,14.93
2023-03-02T00:58:55.972Z,14.23
2023-03-02T01:03:57.576Z,14.07
2023-03-02T01:08:59.141Z,13.50
2023-03-02T01:14:00.755Z,15.03
2023-03-02T01:19:02.294Z,15.70
2023-03-02T01:24:04.162Z,15.17
2023-03-02T01:29:05.793Z,14.07
2023-03-02T01:34:07.622Z,15.10
2023-03-02T01:39:09.156Z,13.67
2023-03-02T01:44:32.537Z,15.00
2023-03-02T01:49:37.970Z,14.13
2023-03-02T01:54:42.606Z,15.00
2023-03-02T01:59:44.220Z,15.23
2023-03-02T02:04:48.907Z,15.00
2023-03-02T02:09:52.717Z,14.87
2023-03-02T02:14:55.949Z,14.17
2023-03-02T02:20:26.829Z,15.30
2023-03-02T02:25:53.499Z,14.93
2023-03-02T02:31:13.434Z,16.20
2023-03-02T02:36:20.447Z,14.63
2023-03-02T02:41:27.101Z,15.43
2023-03-02T02:46:29.304Z,15.83
2023-03-02T02:51:31.096Z,15.30
2023-03-02T02:56:36.583Z,14.80
2023-03-02T03:01:38.251Z,15.47
2023-03-02T03:06:50.887Z,14.23
2023-03-02T03:12:17.504Z,15.63
2023-03-02T03:17:19.210Z,14.23
2023-03-02T03:22:20.886Z,16.43
2023-03-02T03:27:23.605Z,14.03
2023-03-02T03:32:25.278Z,14.73
2023-03-02T03:37:27.348Z,15.43
2023-03-02T03:42:28.999Z,15.37
2023-03-02T03:47:30.584Z,14.97
2023-03-02T03:52:32.182Z,15.17
2023-03-02T03:57:33.925Z,16.23
2023-03-02T04:02:35.509Z,15.37
2023-03-02T04:07:38.026Z,15.43
2023-03-02T04:12:41.223Z,14.73
2023-03-02T04:17:44.957Z,15.43
2023-03-02T04:22:48.822Z,14.50
2023-03-02T04:27:51.745Z,14.50
2023-03-02T04:32:54.119Z,14.67
2023-03-02T04:37:55.789Z,15.03
2023-03-02T04:42:57.383Z,14.80
2023-03-02T04:47:59.042Z,14.13
2023-03-02T04:53:00.729Z,14.43
2023-03-02T04:58:02.322Z,14.67
2023-03-02T05:05:32.869Z,14.03
2023-03-02T05:10:34.479Z,15.23
2023-03-02T05:15:38.993Z,14.50
2023-03-02T05:20:40.714Z,14.93
2023-03-02T05:25:42.321Z,14.57
2023-03-02T05:30:43.884Z,13.83
2023-03-02T05:35:46.237Z,13.53
2023-03-02T05:40:48.995Z,13.53
2023-03-02T05:45:50.746Z,14.13
2023-03-02T05:50:52.750Z,13.87
2023-03-02T05:55:54.516Z,14.20
2023-03-02T06:00:56.105Z,13.77
2023-03-02T06:05:57.729Z,14.80
2023-03-02T06:10:59.434Z,13.20
2023-03-02T06:16:01.058Z,14.60
2023-03-02T06:21:03.378Z,14.33
2023-03-02T06:26:10.374Z,13.77
2023-03-02T06:31:12.005Z,14.77
2023-03-02T06:36:15.158Z,14.00
2023-03-02T06:41:16.895Z,13.00
2023-03-02T06:46:18.656Z,12.77
2023-03-02T06:51:20.316Z,14.03
2023-03-02T06:56:21.949Z,13.13
2023-03-02T07:01:23.574Z,14.53
2023-03-02T07:06:25.190Z,13.47
2023-03-02T07:11:26.923Z,13.67
2023-03-02T07:16:29.095Z,13.90
2023-03-02T07:21:30.967Z,14.47
2023-03-02T07:26:33.054Z,15.90
2023-03-02T07:31:35.091Z,15.67
2023-03-02T07:36:36.801Z,15.17
2023-03-02T07:41:38.455Z,14.47
2023-03-02T07:46:40.101Z,16.47
2023-03-02T07:51:41.901Z,14.43
2023-03-02T07:56:43.785Z,15.20
2023-03-02T08:01:45.377Z,14.67
2023-03-02T08:06:47.050Z,13.47
2023-03-02T08:11:48.606Z,14.40
2023-03-02T08:16:52.867Z,14.40
2023-03-02T08:21:54.550Z,13.20
2023-03-02T08:26:56.221Z,15.03
2023-03-02T08:31:59.201Z,14.00
2023-03-02T08:37:00.826Z,14.20
2023-03-02T08:42:02.436Z,16.27
2023-03-02T08:47:04.085Z,15.23
2023-03-02T08:52:06.464Z,15.47
2023-03-02T08:57:11.626Z,16.13
2023-03-02T09:02:13.345Z,15.60
2023-03-02T09:07:17.338Z,15.37
2023-03-02T09:12:19.293Z,15.93
2023-03-02T09:17:20.928Z,16.17
2023-03-02T09:22:22.485Z,16.50
2023-03-02T09:27:24.098Z,16.03
2023-03-02T09:32:25.840Z,16.13
2023-03-02T09:37:28.953Z,16.07
2023-03-02T09:42:49.510Z,16.17
2023-03-02T09:48:36.870Z,15.97
2023-03-02T09:53:52.144Z,15.80
2023-03-02T09:59:05.153Z,16.60
2023-03-02T10:04:18.583Z,16.40
2023-03-02T10:09:20.258Z,16.40
2023-03-02T10:14:31.333Z,15.67
2023-03-02T10:19:42.274Z,15.83
2023-03-02T10:24:57.762Z,16.60
2023-03-02T10:30:21.741Z,16.13
2023-03-02T10:35:26.438Z,16.67
2023-03-02T10:40:45.872Z,16.60
2023-03-02T10:46:07.421Z,15.17
2023-03-02T10:51:27.613Z,16.03
2023-03-02T10:56:30.176Z,16.27
2023-03-02T11:06:32.349Z,16.63
2023-03-02T11:11:34.739Z,18.03
2023-03-02T11:16:36.681Z,16.53
2023-03-02T11:21:58.969Z,16.63
2023-03-02T11:27:07.621Z,15.17
2023-03-02T11:32:09.302Z,16.27
2023-03-02T11:37:21.651Z,16.23
2023-03-02T11:42:33.684Z,15.77
2023-03-02T11:47:37.688Z,15.43
2023-03-02T11:52:46.430Z,16.63
2023-03-02T11:58:13.989Z,15.27
2023-03-02T12:03:15.492Z,15.80
2023-03-02T12:08:20.220Z,16.13
2023-03-02T12:13:30.151Z,16.30
2023-03-02T12:18:44.162Z,16.43
2023-03-02T12:23:45.624Z,16.33
2023-03-02T12:29:07.577Z,16.67
2023-03-02T12:34:51.659Z,16.40
2023-03-02T12:40:17.865Z,17.00
2023-03-02T12:45:25.170Z,17.00
2023-03-02T12:50:30.972Z,17.20
2023-03-02T12:55:34.427Z,17.73
2023-03-02T13:00:36.162Z,16.03
2023-03-02T13:05:37.980Z,16.10
2023-03-02T13:10:48.332Z,15.17
2023-03-02T13:16:08.392Z,16.90
2023-03-02T13:21:14.936Z,16.30
2023-03-02T13:26:42.796Z,16.43
2023-03-02T13:31:44.827Z,16.70
2023-03-02T13:36:46.629Z,15.43
2023-03-02T13:41:54.305Z,16.93
2023-03-02T13:46:56.233Z,16.57
2023-03-02T13:52:29.253Z,15.80
2023-03-02T13:57:33.170Z,16.13
2023-03-02T14:02:34.777Z,15.87
2023-03-02T14:07:36.522Z,16.57
2023-03-02T14:12:38.402Z,16.33
2023-03-02T14:17:41.065Z,22.17
2023-03-02T14:22:44.502Z,16.33
2023-03-02T14:27:47.528Z,16.23
2023-03-02T14:32:49.141Z,17.17
2023-03-02T14:37:50.950Z,14.27
2023-03-02T14:42:53.263Z,14.20
2023-03-02T14:47:54.850Z,18.00
2023-03-02T14:52:58.104Z,14.73
2023-03-02T14:58:04.127Z,16.30
2023-03-02T15:03:05.711Z,15.70
2023-03-02T15:08:11.952Z,16.70
2023-03-02T15:13:14.472Z,15.03
2023-03-02T15:18:19.583Z,14.63
2023-03-02T15:23:21.314Z,13.53
2023-03-02T15:28:22.888Z,14.93
2023-03-02T15:33:24.482Z,14.53
2023-03-02T15:38:26.554Z,14.03
2023-03-02T15:43:28.195Z,14.27
2023-03-02T15:48:30.148Z,14.60
2023-03-02T15:53:36.108Z,14.63
2023-03-02T15:58:40.594Z,15.53
2023-03-02T16:03:43.423Z,15.17
2023-03-02T16:08:45.422Z,14.27
2023-03-02T16:13:47.083Z,16.37
2023-03-02T16:18:52.976Z,16.20
2023-03-02T16:23:56.264Z,16.60
2023-03-02T16:28:59.331Z,15.57
2023-03-02T16:34:06.239Z,15.90
2023-03-02T16:39:09.536Z,16.97
2023-03-02T16:44:13.460Z,17.30
2023-03-02T16:49:15.200Z,18.23
2023-03-02T16:54:17.294Z,16.47
2023-03-02T16:59:18.881Z,17.10
2023-03-02T17:04:22.023Z,14.73
2023-03-02T17:09:23.606Z,18.23
2023-03-02T17:14:25.921Z,16.40
2023-03-02T17:19:29.398Z,17.23
2023-03-02T17:24:31.380Z,17.50
2023-03-02T17:29:32.950Z,16.97
2023-03-02T17:34:34.655Z,17.70
2023-03-02T17:39:36.322Z,17.00
2023-03-02T17:44:40.223Z,17.40
2023-03-02T17:49:45.396Z,18.60
2023-03-02T17:54:46.996Z,17.77
2023-03-02T17:59:51.549Z,18.77
2023-03-02T18:04:53.232Z,18.37
2023-03-02T18:09:54.862Z,19.27
2023-03-02T18:14:56.569Z,17.77
2023-03-02T18:19:58.254Z,21.90
2023-03-02T18:24:59.897Z,19.77
2023-03-02T18:30:01.708Z,21.83
2023-03-02T18:35:03.471Z,24.80
2023-03-02T18:40:06.562Z,23.00
2023-03-02T18:45:08.980Z,25.50
2023-03-02T18:50:11.751Z,24.90
2023-03-02T18:55:13.445Z,19.80
2023-03-02T19:00:19.495Z,21.10
2023-03-02T19:05:21.678Z,21.53
2023-03-02T19:10:23.378Z,22.50
2023-03-02T19:15:25.100Z,22.30
2023-03-02T19:20:27.452Z,20.87
2023-03-02T19:25:29.231Z,20.80
2023-03-02T19:30:30.931Z,21.47
2023-03-02T19:35:33.731Z,23.00
2023-03-02T19:40:36.557Z,23.83
2023-03-02T19:45:38.365Z,31.23
2023-03-02T19:50:40.764Z,22.70
2023-03-02T19:55:42.986Z,19.73
2023-03-02T20:00:45.802Z,21.00
2023-03-02T20:05:47.482Z,21.17
2023-03-02T20:10:49.712Z,21.73
2023-03-02T20:15:51.801Z,22.57
2023-03-02T20:20:53.485Z,22.90
2023-03-02T20:25:55.164Z,21.87
2023-03-02T20:31:00.575Z,23.10
2023-03-02T20:36:03.888Z,24.80
2023-03-02T20:41:06.722Z,25.07
2023-03-02T20:46:10.063Z,24.53
2023-03-02T20:51:12.319Z,22.70
2023-03-02T20:56:18.565Z,24.50
2023-03-02T21:01:21.188Z,24.33
2023-03-02T21:06:22.933Z,24.23
2023-03-02T21:11:24.642Z,25.93
2023-03-02T21:16:30.197Z,24.73
2023-03-02T21:21:41.150Z,23.03
2023-03-02T21:26:45.238Z,19.90
2023-03-02T21:31:47.866Z,20.90
2023-03-02T21:36:53.578Z,21.53
2023-03-02T21:41:55.502Z,22.03
2023-03-02T21:46:57.188Z,21.77
2023-03-02T21:51:58.950Z,21.87
2023-03-02T21:57:00.560Z,22.80
2023-03-02T22:02:02.303Z,20.80
2023-03-02T22:07:04.047Z,22.77
2023-03-02T22:12:13.788Z,22.17
2023-03-02T22:17:24.900Z,20.43
2023-03-02T22:22:30.156Z,22.60
2023-03-02T22:27:32.183Z,22.23
2023-03-02T22:32:38.388Z,23.57
2023-03-02T22:37:40.042Z,25.20
2023-03-02T22:42:41.662Z,24.00
2023-03-02T22:47:44.797Z,24.87
2023-03-02T22:52:46.453Z,24.70
2023-03-02T22:57:48.133Z,24.60
2023-03-02T23:02:56.779Z,26.27
2023-03-02T23:08:30.393Z,28.83
2023-03-02T23:13:39.803Z,32.60
2023-03-02T23:18:43.108Z,25.90
2023-03-02T23:23:44.778Z,27.47
2023-03-02T23:28:48.517Z,26.27
2023-03-02T23:33:50.114Z,25.67
2023-03-02T23:38:51.957Z,27.13
2023-03-02T23:43:53.917Z,28.33
2023-03-02T23:48:56.205Z,27.53
2023-03-02T23:53:57.803Z,26.33
2023-03-02T23:58:59.606Z,27.40
